KCDN/CDN METAR and TAF weather

Enter ICAO airport designator
Station Type Date Time Source
KCDN METAR 2022/01/26 20:15 UTC NOAA

KCDN 262015Z AUTO 01009KT 10SM CLR 10/M02 A3023 RMK AO2


Station Type Date Time Source
KCDN Decoded METAR 2022/01/26 20:15 UTC NOAA

Station name not available
Jan 26, 2022 - 03:15 PM EST / 2022.01.26 2015 UTC
Wind: from the N (010 degrees) at 10 MPH (9 KT):0
Visibility: 10 mile(s):0
Sky conditions: clear
Temperature: 50 F (10 C)
Dew Point: 28 F (-2 C)
Relative Humidity: 42%
Pressure (altimeter): 30.23 in. Hg (1023 hPa)
ob: KCDN 262015Z AUTO 01009KT 10SM CLR 10/M02 A3023 RMK AO2
cycle: 20

Station Type Date Time Source
KCDN TAF UTC NOAA

Error!

Example: see airport list